This is the latest recevied weather packets stored in our database for station/object WX5II-11. If no packets are shown the sender has not sent any weather packets the latest 10 day(s).
| Time | Temp. | Humidity | Pressure | Rain* | Wind** | Luminosity | Snow |
|---|---|---|---|---|---|---|---|
| 1788417812 | 27.78° C | 75% | 1004.4 hPa | 0 mm | - | - | - |
| 1788411807 | 28.33° C | 74% | 1004.4 hPa | 0 mm | - | - | - |
| 1788409404 | 28.89° C | 73% | 1004.4 hPa | 0 mm | - | - | - |
| 1788407002 | 28.89° C | 70% | 1004.4 hPa | 0 mm | - | - | - |
| 1788406400 | 28.89° C | 69% | 1004 hPa | 0 mm | - | - | - |
| 1788404000 | 30° C | 65% | 1003.7 hPa | 0 mm | - | - | - |
| 1788401609 | 30.56° C | 62% | 1003.3 hPa | 0 mm | - | - | - |
| 1788399194 | 31.67° C | 59% | 1002.7 hPa | 0 mm | - | - | - |
| 1788398594 | 32.22° C | 58% | 1002.7 hPa | 0 mm | - | - | - |
| 1788397993 | 32.78° C | 57% | 1002.7 hPa | 0 mm | - | - | - |
| 1788396193 | 33.89° C | 52% | 1002.3 hPa | 0 mm | - | - | - |
| 1788366765 | 35° C | 52% | 1006.4 hPa | 0 mm | - | - | - |
| 1788362560 | 32.22° C | 58% | 1006.4 hPa | 0 mm | - | - | - |
| 1788361959 | 32.22° C | 59% | 1006.4 hPa | 0 mm | - | - | - |
| 1788361358 | 31.67° C | 59% | 1006.4 hPa | 0 mm | - | - | - |
| 1788360158 | 31.11° C | 63% | 1006.4 hPa | 0 mm | - | - | - |
| 1788356556 | 29.44° C | 73% | 1006.4 hPa | 0 mm | - | - | - |
| 1788349347 | 25° C | 81% | 1005.4 hPa | 0 mm | - | - | - |
| 1788346345 | 25.56° C | 80% | 1005.7 hPa | 0 mm | - | - | - |
| 1788345746 | 25.56° C | 71% | - | 0 mm | - | - | - |
| 1788345143 | 25.56° C | 79% | 1005.4 hPa | 0 mm | - | - | - |
| 1788342140 | 26.11° C | 79% | 1005.4 hPa | 0 mm | - | - | - |
| 1788337938 | 26.67° C | 78% | 1005.4 hPa | 0 mm | - | - | - |
| 1788335533 | 26.67° C | 77% | 1005.4 hPa | 0 mm | - | - | - |
| 1788334937 | 26.67° C | 77% | 1005.4 hPa | 0 mm | - | - | - |
* Rain latest hour (hover to see other rain measurements)
** Current wind speed in m/s (hover to see current wind gust speed)